sensor_id;sensor_type;location;lat;lon;timestamp;temperature;humidity
16863;DHT22;52193;48.216;-1.698;2023-05-10T00:01:45;15.90;94.20
16863;DHT22;52193;48.216;-1.698;2023-05-10T00:04:12;15.90;94.30
16863;DHT22;52193;48.216;-1.698;2023-05-10T00:06:40;15.90;94.30
16863;DHT22;52193;48.216;-1.698;2023-05-10T00:09:07;16.00;94.40
16863;DHT22;52193;48.216;-1.698;2023-05-10T00:11:34;16.00;94.30
16863;DHT22;52193;48.216;-1.698;2023-05-10T00:14:01;16.00;94.30
16863;DHT22;52193;48.216;-1.698;2023-05-10T00:16:28;15.90;94.40
16863;DHT22;52193;48.216;-1.698;2023-05-10T00:18:55;15.80;94.40
16863;DHT22;52193;48.216;-1.698;2023-05-10T00:21:22;15.80;94.50
16863;DHT22;52193;48.216;-1.698;2023-05-10T00:23:50;15.80;94.50
16863;DHT22;52193;48.216;-1.698;2023-05-10T00:26:17;15.80;94.60
16863;DHT22;52193;48.216;-1.698;2023-05-10T00:28:44;15.80;94.50
16863;DHT22;52193;48.216;-1.698;2023-05-10T00:31:11;15.80;94.60
16863;DHT22;52193;48.216;-1.698;2023-05-10T00:33:38;15.80;94.60
16863;DHT22;52193;48.216;-1.698;2023-05-10T00:36:06;15.80;94.60
16863;DHT22;52193;48.216;-1.698;2023-05-10T00:38:34;15.90;94.60
16863;DHT22;52193;48.216;-1.698;2023-05-10T00:41:02;15.90;94.60
16863;DHT22;52193;48.216;-1.698;2023-05-10T00:43:29;15.90;94.50
16863;DHT22;52193;48.216;-1.698;2023-05-10T00:45:56;15.90;94.60
16863;DHT22;52193;48.216;-1.698;2023-05-10T00:48:24;15.90;94.60
16863;DHT22;52193;48.216;-1.698;2023-05-10T00:50:51;16.00;94.50
16863;DHT22;52193;48.216;-1.698;2023-05-10T00:53:18;15.90;94.40
16863;DHT22;52193;48.216;-1.698;2023-05-10T00:55:45;15.90;94.50
16863;DHT22;52193;48.216;-1.698;2023-05-10T00:58:14;15.90;94.50
16863;DHT22;52193;48.216;-1.698;2023-05-10T01:00:42;16.00;94.50
16863;DHT22;52193;48.216;-1.698;2023-05-10T01:03:10;15.90;94.50
16863;DHT22;52193;48.216;-1.698;2023-05-10T01:05:37;15.90;94.50
16863;DHT22;52193;48.216;-1.698;2023-05-10T01:08:04;15.80;94.50
16863;DHT22;52193;48.216;-1.698;2023-05-10T01:10:31;15.80;94.60
16863;DHT22;52193;48.216;-1.698;2023-05-10T01:12:59;15.80;94.60
16863;DHT22;52193;48.216;-1.698;2023-05-10T01:15:27;15.70;94.60
16863;DHT22;52193;48.216;-1.698;2023-05-10T01:17:56;15.80;94.70
16863;DHT22;52193;48.216;-1.698;2023-05-10T01:20:23;15.80;94.60
16863;DHT22;52193;48.216;-1.698;2023-05-10T01:23:09;15.80;94.60
16863;DHT22;52193;48.216;-1.698;2023-05-10T01:31:52;15.80;94.70
16863;DHT22;52193;48.216;-1.698;2023-05-10T01:34:25;15.80;94.70
16863;DHT22;52193;48.216;-1.698;2023-05-10T01:37:01;15.70;94.80
16863;DHT22;52193;48.216;-1.698;2023-05-10T01:39:36;15.80;94.80
16863;DHT22;52193;48.216;-1.698;2023-05-10T01:42:09;15.80;94.90
16863;DHT22;52193;48.216;-1.698;2023-05-10T01:44:40;15.80;94.90
16863;DHT22;52193;48.216;-1.698;2023-05-10T01:47:12;15.80;94.90
16863;DHT22;52193;48.216;-1.698;2023-05-10T01:49:43;15.70;94.90
16863;DHT22;52193;48.216;-1.698;2023-05-10T01:52:15;15.80;95.10
16863;DHT22;52193;48.216;-1.698;2023-05-10T01:54:55;15.80;95.00
16863;DHT22;52193;48.216;-1.698;2023-05-10T01:57:24;15.80;95.10
16863;DHT22;52193;48.216;-1.698;2023-05-10T01:59:52;15.80;95.10
16863;DHT22;52193;48.216;-1.698;2023-05-10T02:02:22;15.90;95.00
16863;DHT22;52193;48.216;-1.698;2023-05-10T02:04:51;15.80;95.00
16863;DHT22;52193;48.216;-1.698;2023-05-10T02:07:19;15.90;95.00
16863;DHT22;52193;48.216;-1.698;2023-05-10T02:09:47;15.90;95.10
16863;DHT22;52193;48.216;-1.698;2023-05-10T02:12:15;15.90;95.10
16863;DHT22;52193;48.216;-1.698;2023-05-10T02:14:43;15.90;95.10
16863;DHT22;52193;48.216;-1.698;2023-05-10T02:17:11;15.90;95.10
16863;DHT22;52193;48.216;-1.698;2023-05-10T02:19:41;15.90;95.00
16863;DHT22;52193;48.216;-1.698;2023-05-10T02:22:09;15.80;95.10
16863;DHT22;52193;48.216;-1.698;2023-05-10T02:24:37;15.80;95.10
16863;DHT22;52193;48.216;-1.698;2023-05-10T02:27:06;15.80;95.20
16863;DHT22;52193;48.216;-1.698;2023-05-10T02:29:35;15.70;95.20
16863;DHT22;52193;48.216;-1.698;2023-05-10T02:32:03;15.70;95.20
16863;DHT22;52193;48.216;-1.698;2023-05-10T02:34:31;15.60;95.10
16863;DHT22;52193;48.216;-1.698;2023-05-10T02:37:00;15.60;95.20
16863;DHT22;52193;48.216;-1.698;2023-05-10T02:39:29;15.60;95.20
16863;DHT22;52193;48.216;-1.698;2023-05-10T02:41:58;15.50;95.20
16863;DHT22;52193;48.216;-1.698;2023-05-10T02:44:27;15.40;95.20
16863;DHT22;52193;48.216;-1.698;2023-05-10T02:46:57;15.30;95.20
16863;DHT22;52193;48.216;-1.698;2023-05-10T02:49:24;15.40;95.30
16863;DHT22;52193;48.216;-1.698;2023-05-10T02:51:56;15.30;95.30
16863;DHT22;52193;48.216;-1.698;2023-05-10T02:54:29;15.30;95.40
16863;DHT22;52193;48.216;-1.698;2023-05-10T02:56:58;15.30;95.50
16863;DHT22;52193;48.216;-1.698;2023-05-10T02:59:26;15.30;95.90
16863;DHT22;52193;48.216;-1.698;2023-05-10T03:01:53;15.30;95.50
16863;DHT22;52193;48.216;-1.698;2023-05-10T03:04:20;15.20;95.60
16863;DHT22;52193;48.216;-1.698;2023-05-10T03:06:47;15.20;95.50
16863;DHT22;52193;48.216;-1.698;2023-05-10T03:09:14;15.20;95.60
16863;DHT22;52193;48.216;-1.698;2023-05-10T03:11:49;15.10;95.70
16863;DHT22;52193;48.216;-1.698;2023-05-10T03:14:30;15.10;95.70
16863;DHT22;52193;48.216;-1.698;2023-05-10T03:17:04;15.10;95.80
16863;DHT22;52193;48.216;-1.698;2023-05-10T03:19:40;15.10;95.80
16863;DHT22;52193;48.216;-1.698;2023-05-10T03:22:10;14.90;95.90
16863;DHT22;52193;48.216;-1.698;2023-05-10T03:24:40;15.00;95.90
16863;DHT22;52193;48.216;-1.698;2023-05-10T03:27:09;15.00;96.00
16863;DHT22;52193;48.216;-1.698;2023-05-10T03:29:37;15.10;96.00
16863;DHT22;52193;48.216;-1.698;2023-05-10T03:32:05;15.00;96.00
16863;DHT22;52193;48.216;-1.698;2023-05-10T03:34:32;15.00;96.00
16863;DHT22;52193;48.216;-1.698;2023-05-10T03:36:59;15.00;96.00
16863;DHT22;52193;48.216;-1.698;2023-05-10T03:39:26;14.90;96.00
16863;DHT22;52193;48.216;-1.698;2023-05-10T03:41:53;14.90;96.00
16863;DHT22;52193;48.216;-1.698;2023-05-10T03:44:21;14.80;96.00
16863;DHT22;52193;48.216;-1.698;2023-05-10T03:46:48;14.80;96.20
16863;DHT22;52193;48.216;-1.698;2023-05-10T03:49:15;14.90;96.20
16863;DHT22;52193;48.216;-1.698;2023-05-10T03:51:42;15.00;96.10
16863;DHT22;52193;48.216;-1.698;2023-05-10T03:54:09;14.90;96.10
16863;DHT22;52193;48.216;-1.698;2023-05-10T03:56:36;14.80;96.20
16863;DHT22;52193;48.216;-1.698;2023-05-10T03:59:03;14.80;96.30
16863;DHT22;52193;48.216;-1.698;2023-05-10T04:01:34;14.90;96.30
16863;DHT22;52193;48.216;-1.698;2023-05-10T04:04:01;14.80;96.30
16863;DHT22;52193;48.216;-1.698;2023-05-10T04:06:28;14.80;96.40
16863;DHT22;52193;48.216;-1.698;2023-05-10T04:08:54;14.90;96.50
16863;DHT22;52193;48.216;-1.698;2023-05-10T04:11:21;14.90;96.50
16863;DHT22;52193;48.216;-1.698;2023-05-10T04:13:50;14.90;96.40
16863;DHT22;52193;48.216;-1.698;2023-05-10T04:16:17;15.00;96.50
16863;DHT22;52193;48.216;-1.698;2023-05-10T04:18:45;15.00;96.40
16863;DHT22;52193;48.216;-1.698;2023-05-10T04:21:12;14.90;96.40
16863;DHT22;52193;48.216;-1.698;2023-05-10T04:23:39;14.90;96.50
16863;DHT22;52193;48.216;-1.698;2023-05-10T04:26:06;14.90;96.50
16863;DHT22;52193;48.216;-1.698;2023-05-10T04:28:33;15.00;96.50
16863;DHT22;52193;48.216;-1.698;2023-05-10T04:31:01;15.00;96.50
16863;DHT22;52193;48.216;-1.698;2023-05-10T04:33:29;15.00;96.40
16863;DHT22;52193;48.216;-1.698;2023-05-10T04:35:57;15.00;96.50
16863;DHT22;52193;48.216;-1.698;2023-05-10T04:38:24;15.00;96.60
16863;DHT22;52193;48.216;-1.698;2023-05-10T04:40:52;15.00;96.50
16863;DHT22;52193;48.216;-1.698;2023-05-10T04:43:19;15.00;96.50
16863;DHT22;52193;48.216;-1.698;2023-05-10T04:45:46;15.00;96.50
16863;DHT22;52193;48.216;-1.698;2023-05-10T04:48:13;15.00;96.50
16863;DHT22;52193;48.216;-1.698;2023-05-10T04:50:40;15.10;96.50
16863;DHT22;52193;48.216;-1.698;2023-05-10T04:53:08;15.00;96.50
16863;DHT22;52193;48.216;-1.698;2023-05-10T04:55:35;14.90;96.60
16863;DHT22;52193;48.216;-1.698;2023-05-10T04:58:02;14.90;96.50
16863;DHT22;52193;48.216;-1.698;2023-05-10T05:00:30;14.90;96.60
16863;DHT22;52193;48.216;-1.698;2023-05-10T05:02:56;14.90;97.10
16863;DHT22;52193;48.216;-1.698;2023-05-10T05:05:23;14.90;96.70
16863;DHT22;52193;48.216;-1.698;2023-05-10T05:07:50;14.90;96.80
16863;DHT22;52193;48.216;-1.698;2023-05-10T05:10:19;14.90;96.80
16863;DHT22;52193;48.216;-1.698;2023-05-10T05:12:46;14.90;96.80
16863;DHT22;52193;48.216;-1.698;2023-05-10T05:15:13;14.90;96.80
16863;DHT22;52193;48.216;-1.698;2023-05-10T05:17:42;15.00;96.90
16863;DHT22;52193;48.216;-1.698;2023-05-10T05:20:10;14.90;96.90
16863;DHT22;52193;48.216;-1.698;2023-05-10T05:22:37;15.00;96.90
16863;DHT22;52193;48.216;-1.698;2023-05-10T05:25:05;15.00;96.90
16863;DHT22;52193;48.216;-1.698;2023-05-10T05:27:33;15.00;97.00
16863;DHT22;52193;48.216;-1.698;2023-05-10T05:30:00;15.00;97.10
16863;DHT22;52193;48.216;-1.698;2023-05-10T05:32:27;15.10;97.10
16863;DHT22;52193;48.216;-1.698;2023-05-10T05:34:54;15.10;97.10
16863;DHT22;52193;48.216;-1.698;2023-05-10T05:37:21;15.00;97.20
16863;DHT22;52193;48.216;-1.698;2023-05-10T05:39:50;15.10;97.40
16863;DHT22;52193;48.216;-1.698;2023-05-10T05:42:17;15.20;97.30
16863;DHT22;52193;48.216;-1.698;2023-05-10T05:44:45;15.20;97.40
16863;DHT22;52193;48.216;-1.698;2023-05-10T05:47:12;15.30;97.50
16863;DHT22;52193;48.216;-1.698;2023-05-10T05:49:39;15.30;97.50
16863;DHT22;52193;48.216;-1.698;2023-05-10T05:52:06;15.40;97.60
16863;DHT22;52193;48.216;-1.698;2023-05-10T05:54:33;15.40;97.70
16863;DHT22;52193;48.216;-1.698;2023-05-10T05:57:00;15.50;97.70
16863;DHT22;52193;48.216;-1.698;2023-05-10T05:59:28;15.40;97.80
16863;DHT22;52193;48.216;-1.698;2023-05-10T06:01:56;15.50;98.00
16863;DHT22;52193;48.216;-1.698;2023-05-10T06:04:23;15.50;98.10
16863;DHT22;52193;48.216;-1.698;2023-05-10T06:06:50;15.60;98.20
16863;DHT22;52193;48.216;-1.698;2023-05-10T06:09:17;15.60;98.30
16863;DHT22;52193;48.216;-1.698;2023-05-10T06:11:44;15.60;98.30
16863;DHT22;52193;48.216;-1.698;2023-05-10T06:14:11;15.70;98.40
16863;DHT22;52193;48.216;-1.698;2023-05-10T06:16:38;15.70;98.40
16863;DHT22;52193;48.216;-1.698;2023-05-10T06:19:06;15.70;98.40
16863;DHT22;52193;48.216;-1.698;2023-05-10T06:21:33;15.70;98.50
16863;DHT22;52193;48.216;-1.698;2023-05-10T06:24:00;15.70;98.60
16863;DHT22;52193;48.216;-1.698;2023-05-10T06:26:28;15.80;98.60
16863;DHT22;52193;48.216;-1.698;2023-05-10T06:28:55;15.80;98.60
16863;DHT22;52193;48.216;-1.698;2023-05-10T06:31:21;15.80;98.50
16863;DHT22;52193;48.216;-1.698;2023-05-10T06:33:48;15.80;98.70
16863;DHT22;52193;48.216;-1.698;2023-05-10T06:36:17;15.90;98.70
16863;DHT22;52193;48.216;-1.698;2023-05-10T06:38:44;15.90;98.90
16863;DHT22;52193;48.216;-1.698;2023-05-10T06:41:10;16.00;98.90
16863;DHT22;52193;48.216;-1.698;2023-05-10T06:43:37;16.00;98.90
16863;DHT22;52193;48.216;-1.698;2023-05-10T06:46:06;16.00;98.90
16863;DHT22;52193;48.216;-1.698;2023-05-10T06:48:33;16.10;99.00
16863;DHT22;52193;48.216;-1.698;2023-05-10T06:51:00;16.00;99.00
16863;DHT22;52193;48.216;-1.698;2023-05-10T06:53:29;16.00;99.10
16863;DHT22;52193;48.216;-1.698;2023-05-10T06:55:55;16.00;99.10
16863;DHT22;52193;48.216;-1.698;2023-05-10T06:58:22;16.10;99.10
16863;DHT22;52193;48.216;-1.698;2023-05-10T07:00:49;16.20;99.10
16863;DHT22;52193;48.216;-1.698;2023-05-10T07:03:16;16.30;99.20
16863;DHT22;52193;48.216;-1.698;2023-05-10T07:05:43;16.30;99.00
16863;DHT22;52193;48.216;-1.698;2023-05-10T07:08:10;16.40;99.00
16863;DHT22;52193;48.216;-1.698;2023-05-10T07:10:38;16.40;99.00
16863;DHT22;52193;48.216;-1.698;2023-05-10T07:13:05;16.50;99.00
16863;DHT22;52193;48.216;-1.698;2023-05-10T07:15:32;16.60;98.90
16863;DHT22;52193;48.216;-1.698;2023-05-10T07:17:59;16.60;99.00
16863;DHT22;52193;48.216;-1.698;2023-05-10T07:20:26;16.60;99.00
16863;DHT22;52193;48.216;-1.698;2023-05-10T07:22:53;16.60;99.00
16863;DHT22;52193;48.216;-1.698;2023-05-10T07:25:20;16.60;99.00
16863;DHT22;52193;48.216;-1.698;2023-05-10T07:27:48;16.70;98.90
16863;DHT22;52193;48.216;-1.698;2023-05-10T07:30:16;16.80;99.00
16863;DHT22;52193;48.216;-1.698;2023-05-10T07:32:43;16.90;99.00
16863;DHT22;52193;48.216;-1.698;2023-05-10T07:35:10;16.90;98.90
16863;DHT22;52193;48.216;-1.698;2023-05-10T07:37:37;16.90;98.90
16863;DHT22;52193;48.216;-1.698;2023-05-10T07:40:05;16.90;98.80
16863;DHT22;52193;48.216;-1.698;2023-05-10T07:42:32;17.00;98.90
16863;DHT22;52193;48.216;-1.698;2023-05-10T07:45:00;17.00;98.80
16863;DHT22;52193;48.216;-1.698;2023-05-10T07:47:27;17.00;98.90
16863;DHT22;52193;48.216;-1.698;2023-05-10T07:49:54;17.00;99.40
16863;DHT22;52193;48.216;-1.698;2023-05-10T07:52:21;16.90;99.30
16863;DHT22;52193;48.216;-1.698;2023-05-10T07:54:48;17.00;99.40
16863;DHT22;52193;48.216;-1.698;2023-05-10T07:57:15;17.00;99.50
16863;DHT22;52193;48.216;-1.698;2023-05-10T07:59:43;16.90;99.70
16863;DHT22;52193;48.216;-1.698;2023-05-10T08:02:12;17.00;99.90
16863;DHT22;52193;48.216;-1.698;2023-05-10T08:04:39;17.00;99.90
16863;DHT22;52193;48.216;-1.698;2023-05-10T08:07:06;17.00;99.90
16863;DHT22;52193;48.216;-1.698;2023-05-10T08:09:33;17.00;99.90
16863;DHT22;52193;48.216;-1.698;2023-05-10T08:12:00;17.20;99.90
16863;DHT22;52193;48.216;-1.698;2023-05-10T08:14:28;17.30;99.90
16863;DHT22;52193;48.216;-1.698;2023-05-10T08:16:56;17.30;99.90
16863;DHT22;52193;48.216;-1.698;2023-05-10T08:19:24;17.40;99.90
16863;DHT22;52193;48.216;-1.698;2023-05-10T08:21:52;17.40;99.90
16863;DHT22;52193;48.216;-1.698;2023-05-10T08:24:18;17.60;99.90
16863;DHT22;52193;48.216;-1.698;2023-05-10T08:26:45;17.50;99.90
16863;DHT22;52193;48.216;-1.698;2023-05-10T08:29:13;17.40;99.90
16863;DHT22;52193;48.216;-1.698;2023-05-10T08:31:40;17.40;99.90
16863;DHT22;52193;48.216;-1.698;2023-05-10T08:34:07;17.30;99.90
16863;DHT22;52193;48.216;-1.698;2023-05-10T08:36:35;17.30;99.90
16863;DHT22;52193;48.216;-1.698;2023-05-10T08:39:03;17.40;99.90
16863;DHT22;52193;48.216;-1.698;2023-05-10T08:41:30;17.50;99.90
16863;DHT22;52193;48.216;-1.698;2023-05-10T08:44:03;17.60;99.90
16863;DHT22;52193;48.216;-1.698;2023-05-10T08:46:31;17.60;99.90
16863;DHT22;52193;48.216;-1.698;2023-05-10T08:49:02;17.70;99.90
16863;DHT22;52193;48.216;-1.698;2023-05-10T08:51:31;17.90;99.90
16863;DHT22;52193;48.216;-1.698;2023-05-10T08:54:01;18.10;99.90
16863;DHT22;52193;48.216;-1.698;2023-05-10T08:56:28;18.10;99.90
16863;DHT22;52193;48.216;-1.698;2023-05-10T08:58:56;18.00;99.90
16863;DHT22;52193;48.216;-1.698;2023-05-10T09:01:23;18.20;99.90
16863;DHT22;52193;48.216;-1.698;2023-05-10T09:03:50;18.20;99.90
16863;DHT22;52193;48.216;-1.698;2023-05-10T09:06:18;18.20;99.90
16863;DHT22;52193;48.216;-1.698;2023-05-10T09:08:45;18.30;99.90
16863;DHT22;52193;48.216;-1.698;2023-05-10T09:11:14;18.30;99.80
16863;DHT22;52193;48.216;-1.698;2023-05-10T09:13:42;18.20;99.90
16863;DHT22;52193;48.216;-1.698;2023-05-10T09:16:09;18.30;99.90
16863;DHT22;52193;48.216;-1.698;2023-05-10T09:18:36;18.40;99.90
16863;DHT22;52193;48.216;-1.698;2023-05-10T09:21:03;18.40;99.90
16863;DHT22;52193;48.216;-1.698;2023-05-10T09:23:30;18.50;99.90
16863;DHT22;52193;48.216;-1.698;2023-05-10T09:26:04;18.60;99.70
16863;DHT22;52193;48.216;-1.698;2023-05-10T09:28:34;18.70;99.60
16863;DHT22;52193;48.216;-1.698;2023-05-10T09:31:01;18.70;99.50
16863;DHT22;52193;48.216;-1.698;2023-05-10T09:33:27;18.80;99.40
16863;DHT22;52193;48.216;-1.698;2023-05-10T09:35:55;18.80;99.40
16863;DHT22;52193;48.216;-1.698;2023-05-10T09:38:22;18.80;99.20
16863;DHT22;52193;48.216;-1.698;2023-05-10T09:40:52;18.80;99.20
16863;DHT22;52193;48.216;-1.698;2023-05-10T09:43:21;18.90;99.20
16863;DHT22;52193;48.216;-1.698;2023-05-10T09:45:49;18.90;99.20
16863;DHT22;52193;48.216;-1.698;2023-05-10T09:48:16;19.00;99.10
16863;DHT22;52193;48.216;-1.698;2023-05-10T09:50:43;19.00;99.20
16863;DHT22;52193;48.216;-1.698;2023-05-10T09:53:14;19.10;99.20
16863;DHT22;52193;48.216;-1.698;2023-05-10T09:55:43;19.20;99.10
16863;DHT22;52193;48.216;-1.698;2023-05-10T09:58:12;19.20;99.00
16863;DHT22;52193;48.216;-1.698;2023-05-10T10:00:40;19.20;99.00
16863;DHT22;52193;48.216;-1.698;2023-05-10T10:03:12;19.10;98.80
16863;DHT22;52193;48.216;-1.698;2023-05-10T10:05:40;19.10;98.80
16863;DHT22;52193;48.216;-1.698;2023-05-10T10:08:08;19.20;98.80
16863;DHT22;52193;48.216;-1.698;2023-05-10T10:10:36;19.10;98.80
16863;DHT22;52193;48.216;-1.698;2023-05-10T10:13:04;19.10;98.90
16863;DHT22;52193;48.216;-1.698;2023-05-10T10:15:32;19.20;98.80
16863;DHT22;52193;48.216;-1.698;2023-05-10T10:18:00;19.20;98.80
16863;DHT22;52193;48.216;-1.698;2023-05-10T10:20:30;19.30;98.90
16863;DHT22;52193;48.216;-1.698;2023-05-10T10:22:57;19.40;98.80
16863;DHT22;52193;48.216;-1.698;2023-05-10T10:25:25;19.50;98.70
16863;DHT22;52193;48.216;-1.698;2023-05-10T10:28:05;19.50;98.40
16863;DHT22;52193;48.216;-1.698;2023-05-10T10:30:39;19.50;98.30
16863;DHT22;52193;48.216;-1.698;2023-05-10T10:33:24;19.70;98.20
16863;DHT22;52193;48.216;-1.698;2023-05-10T10:36:00;19.90;98.10
16863;DHT22;52193;48.216;-1.698;2023-05-10T10:38:36;19.90;97.80
16863;DHT22;52193;48.216;-1.698;2023-05-10T10:41:11;19.60;98.30
16863;DHT22;52193;48.216;-1.698;2023-05-10T10:46:59;19.60;99.00
16863;DHT22;52193;48.216;-1.698;2023-05-10T10:49:29;19.50;99.20
16863;DHT22;52193;48.216;-1.698;2023-05-10T10:52:21;19.60;99.30
16863;DHT22;52193;48.216;-1.698;2023-05-10T10:54:50;19.60;99.50
16863;DHT22;52193;48.216;-1.698;2023-05-10T10:57:19;19.60;99.50
16863;DHT22;52193;48.216;-1.698;2023-05-10T10:59:47;19.50;99.50
16863;DHT22;52193;48.216;-1.698;2023-05-10T11:02:33;19.50;99.70
16863;DHT22;52193;48.216;-1.698;2023-05-10T11:08:18;19.40;99.80
16863;DHT22;52193;48.216;-1.698;2023-05-10T11:11:04;19.30;99.80
16863;DHT22;52193;48.216;-1.698;2023-05-10T11:13:34;19.40;99.90
16863;DHT22;52193;48.216;-1.698;2023-05-10T11:16:13;19.40;99.90
16863;DHT22;52193;48.216;-1.698;2023-05-10T11:18:40;19.70;99.90
16863;DHT22;52193;48.216;-1.698;2023-05-10T11:21:09;19.70;99.90
16863;DHT22;52193;48.216;-1.698;2023-05-10T11:23:53;19.80;99.90
16863;DHT22;52193;48.216;-1.698;2023-05-10T11:26:23;20.10;99.90
16863;DHT22;52193;48.216;-1.698;2023-05-10T11:28:52;20.30;99.80
16863;DHT22;52193;48.216;-1.698;2023-05-10T11:31:20;20.50;99.70
16863;DHT22;52193;48.216;-1.698;2023-05-10T11:33:48;20.50;99.70
16863;DHT22;52193;48.216;-1.698;2023-05-10T11:36:17;20.50;99.60
16863;DHT22;52193;48.216;-1.698;2023-05-10T11:38:45;20.60;99.70
16863;DHT22;52193;48.216;-1.698;2023-05-10T11:41:16;20.60;99.50
16863;DHT22;52193;48.216;-1.698;2023-05-10T11:43:46;20.80;99.50
16863;DHT22;52193;48.216;-1.698;2023-05-10T11:46:14;21.10;99.50
16863;DHT22;52193;48.216;-1.698;2023-05-10T11:48:42;21.40;99.30
16863;DHT22;52193;48.216;-1.698;2023-05-10T11:51:09;21.80;99.10
16863;DHT22;52193;48.216;-1.698;2023-05-10T11:53:37;22.20;98.80
16863;DHT22;52193;48.216;-1.698;2023-05-10T11:56:05;22.60;98.60
16863;DHT22;52193;48.216;-1.698;2023-05-10T11:58:34;23.00;98.50
16863;DHT22;52193;48.216;-1.698;2023-05-10T12:01:02;23.60;98.40
16863;DHT22;52193;48.216;-1.698;2023-05-10T12:03:30;23.90;97.70
16863;DHT22;52193;48.216;-1.698;2023-05-10T12:05:57;24.00;97.40
16863;DHT22;52193;48.216;-1.698;2023-05-10T12:08:25;24.10;97.20
16863;DHT22;52193;48.216;-1.698;2023-05-10T12:11:03;24.00;97.00
16863;DHT22;52193;48.216;-1.698;2023-05-10T12:13:30;23.90;97.00
16863;DHT22;52193;48.216;-1.698;2023-05-10T12:15:59;23.50;97.20
16863;DHT22;52193;48.216;-1.698;2023-05-10T12:18:26;23.30;97.40
16863;DHT22;52193;48.216;-1.698;2023-05-10T12:20:53;23.10;97.60
16863;DHT22;52193;48.216;-1.698;2023-05-10T12:23:20;23.00;97.60
16863;DHT22;52193;48.216;-1.698;2023-05-10T12:25:47;22.90;97.60
16863;DHT22;52193;48.216;-1.698;2023-05-10T12:28:14;22.70;97.60
16863;DHT22;52193;48.216;-1.698;2023-05-10T12:30:41;22.60;97.50
16863;DHT22;52193;48.216;-1.698;2023-05-10T12:33:10;22.50;97.50
16863;DHT22;52193;48.216;-1.698;2023-05-10T12:35:45;22.60;97.40
16863;DHT22;52193;48.216;-1.698;2023-05-10T12:38:31;22.80;97.30
16863;DHT22;52193;48.216;-1.698;2023-05-10T12:40:59;23.20;96.90
16863;DHT22;52193;48.216;-1.698;2023-05-10T12:43:27;23.20;96.40
16863;DHT22;52193;48.216;-1.698;2023-05-10T12:45:54;23.10;96.00
16863;DHT22;52193;48.216;-1.698;2023-05-10T12:48:22;22.90;95.90
16863;DHT22;52193;48.216;-1.698;2023-05-10T12:50:49;22.70;95.70
16863;DHT22;52193;48.216;-1.698;2023-05-10T12:53:16;22.60;95.90
16863;DHT22;52193;48.216;-1.698;2023-05-10T12:55:44;22.40;95.80
16863;DHT22;52193;48.216;-1.698;2023-05-10T12:58:11;22.40;95.90
16863;DHT22;52193;48.216;-1.698;2023-05-10T13:00:37;22.30;96.10
16863;DHT22;52193;48.216;-1.698;2023-05-10T13:03:05;22.30;96.30
16863;DHT22;52193;48.216;-1.698;2023-05-10T13:05:33;22.20;96.40
16863;DHT22;52193;48.216;-1.698;2023-05-10T13:08:00;22.10;96.40
16863;DHT22;52193;48.216;-1.698;2023-05-10T13:10:30;22.20;96.40
16863;DHT22;52193;48.216;-1.698;2023-05-10T13:12:57;22.40;96.20
16863;DHT22;52193;48.216;-1.698;2023-05-10T13:15:25;22.50;96.10
16863;DHT22;52193;48.216;-1.698;2023-05-10T13:17:53;22.50;96.10
16863;DHT22;52193;48.216;-1.698;2023-05-10T13:20:20;22.50;96.00
16863;DHT22;52193;48.216;-1.698;2023-05-10T13:22:49;22.50;95.90
16863;DHT22;52193;48.216;-1.698;2023-05-10T13:25:16;22.50;95.70
16863;DHT22;52193;48.216;-1.698;2023-05-10T13:27:43;22.90;95.50
16863;DHT22;52193;48.216;-1.698;2023-05-10T13:30:11;22.80;95.50
16863;DHT22;52193;48.216;-1.698;2023-05-10T13:32:38;22.40;95.80
16863;DHT22;52193;48.216;-1.698;2023-05-10T13:35:06;22.20;96.20
16863;DHT22;52193;48.216;-1.698;2023-05-10T13:37:33;22.00;96.50
16863;DHT22;52193;48.216;-1.698;2023-05-10T13:40:05;21.90;96.60
16863;DHT22;52193;48.216;-1.698;2023-05-10T13:42:32;21.70;96.60
16863;DHT22;52193;48.216;-1.698;2023-05-10T13:44:59;21.70;96.70
16863;DHT22;52193;48.216;-1.698;2023-05-10T13:47:27;21.60;96.70
16863;DHT22;52193;48.216;-1.698;2023-05-10T13:49:54;21.50;96.60
16863;DHT22;52193;48.216;-1.698;2023-05-10T13:52:20;21.30;96.30
16863;DHT22;52193;48.216;-1.698;2023-05-10T13:54:47;21.30;96.30
16863;DHT22;52193;48.216;-1.698;2023-05-10T13:57:16;21.30;96.10
16863;DHT22;52193;48.216;-1.698;2023-05-10T13:59:43;21.40;96.10
16863;DHT22;52193;48.216;-1.698;2023-05-10T14:02:09;21.60;96.10
16863;DHT22;52193;48.216;-1.698;2023-05-10T14:04:38;22.10;96.10
16863;DHT22;52193;48.216;-1.698;2023-05-10T14:07:05;22.50;95.90
16863;DHT22;52193;48.216;-1.698;2023-05-10T14:09:32;22.80;95.90
16863;DHT22;52193;48.216;-1.698;2023-05-10T14:11:59;22.80;95.90
16863;DHT22;52193;48.216;-1.698;2023-05-10T14:14:27;22.70;96.00
16863;DHT22;52193;48.216;-1.698;2023-05-10T14:16:54;22.60;96.10
16863;DHT22;52193;48.216;-1.698;2023-05-10T14:19:21;22.50;95.90
16863;DHT22;52193;48.216;-1.698;2023-05-10T14:21:48;22.40;95.90
16863;DHT22;52193;48.216;-1.698;2023-05-10T14:24:17;22.40;95.90
16863;DHT22;52193;48.216;-1.698;2023-05-10T14:26:44;22.40;95.90
16863;DHT22;52193;48.216;-1.698;2023-05-10T14:29:11;22.30;95.60
16863;DHT22;52193;48.216;-1.698;2023-05-10T14:31:40;22.10;95.30
16863;DHT22;52193;48.216;-1.698;2023-05-10T14:34:07;22.30;95.30
16863;DHT22;52193;48.216;-1.698;2023-05-10T14:36:34;22.40;95.20
16863;DHT22;52193;48.216;-1.698;2023-05-10T14:39:01;22.60;95.20
16863;DHT22;52193;48.216;-1.698;2023-05-10T14:41:28;22.70;95.20
16863;DHT22;52193;48.216;-1.698;2023-05-10T14:43:55;22.60;95.30
16863;DHT22;52193;48.216;-1.698;2023-05-10T14:46:22;22.60;95.20
16863;DHT22;52193;48.216;-1.698;2023-05-10T14:48:51;22.50;95.10
16863;DHT22;52193;48.216;-1.698;2023-05-10T14:51:18;22.60;95.00
16863;DHT22;52193;48.216;-1.698;2023-05-10T14:53:47;22.50;94.70
16863;DHT22;52193;48.216;-1.698;2023-05-10T14:56:14;22.60;94.50
16863;DHT22;52193;48.216;-1.698;2023-05-10T14:58:41;22.70;94.20
16863;DHT22;52193;48.216;-1.698;2023-05-10T15:01:08;22.90;94.00
16863;DHT22;52193;48.216;-1.698;2023-05-10T15:03:35;23.30;93.70
16863;DHT22;52193;48.216;-1.698;2023-05-10T15:06:04;23.90;93.10
16863;DHT22;52193;48.216;-1.698;2023-05-10T15:08:31;24.10;92.60
16863;DHT22;52193;48.216;-1.698;2023-05-10T15:10:57;24.30;92.30
16863;DHT22;52193;48.216;-1.698;2023-05-10T15:13:24;24.30;91.80
16863;DHT22;52193;48.216;-1.698;2023-05-10T15:15:51;24.30;91.20
16863;DHT22;52193;48.216;-1.698;2023-05-10T15:18:18;24.20;90.90
16863;DHT22;52193;48.216;-1.698;2023-05-10T15:20:45;24.00;90.50
16863;DHT22;52193;48.216;-1.698;2023-05-10T15:23:13;23.90;90.60
16863;DHT22;52193;48.216;-1.698;2023-05-10T15:25:40;23.80;90.80
16863;DHT22;52193;48.216;-1.698;2023-05-10T15:28:07;23.90;91.00
16863;DHT22;52193;48.216;-1.698;2023-05-10T15:30:34;24.00;91.20
16863;DHT22;52193;48.216;-1.698;2023-05-10T15:33:01;24.30;91.30
16863;DHT22;52193;48.216;-1.698;2023-05-10T15:35:28;24.60;91.10